createdAt,value
2022-10-31T00:00:39.847Z,69.88
2022-10-31T00:05:44.945Z,69.39
2022-10-31T00:10:40.722Z,69.77
2022-10-31T00:15:44.764Z,69.61
2022-10-31T00:20:41.980Z,69.82
2022-10-31T00:25:50.502Z,69.86
2022-10-31T00:31:03.787Z,70.25
2022-10-31T00:36:30.342Z,70.51
2022-10-31T00:41:29.217Z,70.98
2022-10-31T00:46:38.945Z,72.07
2022-10-31T00:51:42.417Z,72.59
2022-10-31T00:56:50.510Z,72.81
2022-10-31T01:01:51.369Z,72.95
2022-10-31T01:06:45.424Z,73.09
2022-10-31T01:11:45.725Z,72.63
2022-10-31T01:16:42.766Z,72.90
2022-10-31T01:21:45.958Z,72.76
2022-10-31T01:26:53.073Z,72.85
2022-10-31T01:31:52.493Z,72.92
2022-10-31T01:36:52.605Z,72.97
2022-10-31T01:41:48.989Z,72.74
2022-10-31T01:46:48.196Z,73.41
2022-10-31T01:51:57.353Z,73.28
2022-10-31T01:56:59.877Z,73.64
2022-10-31T02:01:59.395Z,73.87
2022-10-31T02:07:29.085Z,74.55
2022-10-31T02:12:32.519Z,75.58
2022-10-31T02:17:33.622Z,75.09
2022-10-31T02:22:32.854Z,74.94
2022-10-31T02:28:01.703Z,74.67
2022-10-31T02:33:19.081Z,73.77
2022-10-31T02:38:29.414Z,72.33
2022-10-31T02:43:39.498Z,71.62
2022-10-31T02:48:46.964Z,71.52
2022-10-31T02:53:41.029Z,71.37
2022-10-31T02:58:43.727Z,71.32
2022-10-31T03:04:00.804Z,71.73
2022-10-31T03:09:13.501Z,71.60
2022-10-31T03:14:38.505Z,71.67
2022-10-31T03:19:47.034Z,72.44
2022-10-31T03:24:43.390Z,73.46
2022-10-31T03:29:44.959Z,74.22
2022-10-31T03:34:47.863Z,75.04
2022-10-31T03:39:46.146Z,75.67
2022-10-31T03:44:54.877Z,76.19
2022-10-31T03:50:16.393Z,77.53
2022-10-31T03:55:31.557Z,78.15
2022-10-31T04:00:59.856Z,78.28
2022-10-31T04:26:58.787Z,76.11
2022-10-31T04:37:05.511Z,77.07
2022-10-31T04:42:16.778Z,78.04
2022-10-31T04:47:13.830Z,77.56
2022-10-31T04:52:24.800Z,77.63
2022-10-31T05:24:24.140Z,79.13
2022-10-31T05:29:17.652Z,79.63
2022-10-31T05:34:10.949Z,79.56
2022-10-31T05:39:20.698Z,80.18
2022-10-31T05:44:18.238Z,80.35
2022-10-31T05:49:30.151Z,80.41
2022-10-31T05:54:29.517Z,80.88
2022-10-31T05:59:24.447Z,81.13
2022-10-31T06:04:17.954Z,80.35
2022-10-31T06:09:15.595Z,80.02
2022-10-31T06:14:14.814Z,79.80
2022-10-31T06:19:20.538Z,79.66
2022-10-31T06:24:16.045Z,79.57
2022-10-31T06:29:27.682Z,80.01
2022-10-31T06:34:53.665Z,80.40
2022-10-31T06:39:47.492Z,80.22
2022-10-31T06:44:42.980Z,79.95
2022-10-31T06:49:58.619Z,79.37
2022-10-31T06:54:52.949Z,79.48
2022-10-31T06:59:51.032Z,78.97
2022-10-31T07:04:58.094Z,78.34
2022-10-31T07:09:51.641Z,76.70
2022-10-31T07:14:57.042Z,75.49
2022-10-31T07:19:54.736Z,73.73
2022-10-31T07:24:49.801Z,72.50
2022-10-31T07:30:01.939Z,72.01
2022-10-31T07:34:57.384Z,71.55
2022-10-31T07:40:04.857Z,71.16
2022-10-31T07:45:03.123Z,70.90
2022-10-31T07:50:17.707Z,70.48
2022-10-31T07:55:27.367Z,69.71
2022-10-31T08:00:24.083Z,69.36
2022-10-31T08:05:21.353Z,68.84
2022-10-31T08:10:48.667Z,67.75
2022-10-31T08:15:50.975Z,66.17
2022-10-31T08:20:52.069Z,65.73
2022-10-31T08:25:48.024Z,64.81
2022-10-31T08:30:51.618Z,63.45
2022-10-31T08:36:17.983Z,62.32
2022-10-31T08:41:36.657Z,62.46
2022-10-31T08:46:32.803Z,61.83
2022-10-31T08:51:28.929Z,60.80
2022-10-31T08:56:31.780Z,58.85
2022-10-31T09:01:30.170Z,55.73
2022-10-31T09:06:25.076Z,51.92
2022-10-31T09:11:26.173Z,52.40
2022-10-31T09:16:47.024Z,52.10
2022-10-31T09:21:54.648Z,52.11
2022-10-31T09:28:33.038Z,52.31
2022-10-31T10:23:33.365Z,50.25
2022-10-31T10:35:54.442Z,48.62
2022-10-31T10:53:50.268Z,48.59
2022-10-31T12:00:15.228Z,47.27
2022-10-31T12:13:25.568Z,47.46
2022-10-31T12:20:25.905Z,47.88
2022-10-31T12:26:55.717Z,46.80
2022-10-31T12:33:09.058Z,47.22
2022-10-31T12:39:00.558Z,47.02
2022-10-31T12:58:22.858Z,46.28
2022-10-31T13:24:28.994Z,48.77
2022-10-31T13:44:22.073Z,46.66
2022-10-31T13:57:05.387Z,48.55
2022-10-31T14:15:34.273Z,48.85
2022-10-31T14:27:55.863Z,49.50
2022-10-31T14:33:51.434Z,50.31
2022-10-31T14:39:22.197Z,50.95
2022-10-31T14:44:51.586Z,52.50
2022-10-31T14:50:16.563Z,52.95
2022-10-31T14:55:54.390Z,53.57
2022-10-31T15:01:16.668Z,54.42
2022-10-31T15:06:26.847Z,55.19
2022-10-31T15:11:30.857Z,55.46
2022-10-31T15:21:36.063Z,56.21
2022-10-31T15:26:36.514Z,56.38
2022-10-31T15:31:41.927Z,56.57
2022-10-31T15:36:52.557Z,57.08
2022-10-31T15:42:09.006Z,57.27
2022-10-31T15:47:17.976Z,57.26
2022-10-31T15:53:48.755Z,57.20
2022-10-31T16:19:40.261Z,58.38
2022-10-31T16:31:00.699Z,59.60
2022-10-31T16:42:12.377Z,60.76
2022-10-31T16:55:00.215Z,62.71
2022-10-31T17:00:10.642Z,63.79
2022-10-31T17:05:48.249Z,64.41
2022-10-31T17:11:37.414Z,65.34
2022-10-31T17:17:34.474Z,65.91
2022-10-31T17:30:04.434Z,66.25
2022-10-31T17:35:21.474Z,66.54
2022-10-31T18:00:35.151Z,66.66
2022-10-31T18:13:16.315Z,68.11
2022-10-31T18:25:49.888Z,69.70
2022-10-31T18:32:26.010Z,70.20
2022-10-31T18:39:40.801Z,70.78
2022-10-31T18:44:46.743Z,71.73
2022-10-31T19:08:58.377Z,72.12
2022-10-31T19:14:40.603Z,72.55
2022-10-31T19:51:13.546Z,72.78
2022-10-31T20:03:27.760Z,74.23
2022-10-31T20:08:27.388Z,73.92
2022-10-31T20:26:04.265Z,74.57
2022-10-31T20:32:10.558Z,74.67
2022-10-31T20:43:40.149Z,73.87
2022-10-31T20:48:50.353Z,74.28
2022-10-31T20:54:00.565Z,74.38
2022-10-31T20:59:40.622Z,74.37
2022-10-31T21:05:30.674Z,74.14
2022-10-31T21:11:23.842Z,73.80
2022-10-31T21:16:53.753Z,74.01
2022-10-31T21:22:30.343Z,73.54
2022-10-31T21:27:58.260Z,73.67
2022-10-31T21:33:35.099Z,74.44
2022-10-31T22:00:23.735Z,76.50
2022-10-31T22:06:27.088Z,77.07
2022-10-31T22:23:53.762Z,78.52
2022-10-31T22:28:59.291Z,78.94
2022-10-31T22:34:03.606Z,79.28
2022-10-31T22:39:09.216Z,79.42
2022-10-31T22:44:23.776Z,79.12
2022-10-31T22:50:11.529Z,77.43
2022-10-31T23:01:30.780Z,78.84
2022-10-31T23:06:52.747Z,79.78
2022-10-31T23:11:46.663Z,80.85
2022-10-31T23:22:48.120Z,79.91
2022-10-31T23:28:17.716Z,79.80
2022-10-31T23:34:06.822Z,79.52
2022-10-31T23:52:01.662Z,80.74
2022-10-31T23:58:03.721Z,79.31
